createdAt,value
2022-10-21T00:01:05.916Z,11.70
2022-10-21T00:03:34.099Z,13.03
2022-10-21T00:06:04.089Z,12.00
2022-10-21T00:08:32.289Z,13.43
2022-10-21T00:11:04.139Z,11.40
2022-10-21T00:13:33.447Z,13.07
2022-10-21T00:16:03.659Z,11.90
2022-10-21T00:18:33.223Z,10.37
2022-10-21T00:21:06.262Z,10.97
2022-10-21T00:23:34.819Z,10.50
2022-10-21T00:26:03.186Z,10.90
2022-10-21T00:28:31.758Z,9.57
2022-10-21T00:31:00.487Z,9.03
2022-10-21T00:33:29.698Z,8.83
2022-10-21T00:35:59.223Z,8.63
2022-10-21T00:38:28.833Z,9.83
2022-10-21T00:40:57.230Z,10.73
2022-10-21T00:43:27.068Z,17.33
2022-10-21T00:45:59.069Z,12.67
2022-10-21T00:48:32.836Z,9.67
2022-10-21T00:51:04.654Z,10.57
2022-10-21T00:53:36.358Z,10.43
2022-10-21T00:56:15.444Z,8.97
2022-10-21T00:58:46.447Z,10.47
2022-10-21T01:01:17.972Z,9.97
2022-10-21T01:03:49.276Z,8.93
2022-10-21T01:06:19.746Z,8.70
2022-10-21T01:08:49.631Z,9.63
2022-10-21T01:11:20.594Z,10.60
2022-10-21T01:14:08.681Z,10.67
2022-10-21T01:16:48.164Z,7.50
2022-10-21T01:19:52.888Z,9.57
2022-10-21T01:22:39.359Z,9.77
2022-10-21T01:25:28.789Z,8.40
2022-10-21T01:28:05.232Z,9.37
2022-10-21T01:30:43.793Z,7.57
2022-10-21T01:33:34.151Z,9.60
2022-10-21T01:36:11.758Z,10.70
2022-10-21T01:38:44.947Z,8.90
2022-10-21T01:41:18.560Z,7.93
2022-10-21T01:43:50.961Z,9.03
2022-10-21T01:46:28.195Z,8.97
2022-10-21T01:49:01.611Z,9.63
2022-10-21T01:51:30.642Z,8.33
2022-10-21T01:54:04.076Z,8.60
2022-10-21T01:56:34.447Z,9.07
2022-10-21T01:59:04.818Z,8.03
2022-10-21T02:01:38.212Z,7.20
2022-10-21T02:04:09.528Z,8.30
2022-10-21T02:06:38.711Z,11.50
2022-10-21T02:09:07.146Z,7.93
2022-10-21T02:11:38.871Z,8.10
2022-10-21T02:14:10.626Z,11.27
2022-10-21T02:16:42.519Z,10.50
2022-10-21T02:19:19.424Z,10.93
2022-10-21T02:21:50.682Z,8.03
2022-10-21T02:24:24.192Z,8.07
2022-10-21T02:26:52.643Z,7.50
2022-10-21T02:29:23.516Z,6.83
2022-10-21T02:32:10.588Z,10.50
2022-10-21T02:34:52.474Z,8.97
2022-10-21T02:37:30.162Z,7.17
2022-10-21T02:40:05.005Z,8.20
2022-10-21T02:42:37.065Z,7.40
2022-10-21T02:45:06.910Z,11.43
2022-10-21T02:47:39.557Z,7.80
2022-10-21T02:50:08.780Z,6.70
2022-10-21T02:52:37.054Z,7.77
2022-10-21T02:55:05.722Z,6.23
2022-10-21T02:57:33.948Z,7.50
2022-10-21T03:00:02.103Z,7.00
2022-10-21T03:02:30.302Z,11.57
2022-10-21T03:05:00.079Z,6.93
2022-10-21T03:07:28.206Z,11.07
2022-10-21T03:09:56.382Z,8.53
2022-10-21T03:12:24.649Z,5.73
2022-10-21T03:14:52.844Z,7.83
2022-10-21T03:17:24.339Z,5.90
2022-10-21T03:19:53.530Z,5.30
2022-10-21T03:22:23.030Z,8.60
2022-10-21T03:24:51.225Z,6.30
2022-10-21T03:27:19.603Z,4.40
2022-10-21T03:29:47.789Z,6.93
2022-10-21T03:32:15.975Z,5.50
2022-10-21T03:34:44.076Z,6.00
2022-10-21T03:37:12.368Z,5.50
2022-10-21T03:39:41.853Z,8.90
2022-10-21T03:42:10.982Z,5.70
2022-10-21T03:44:39.125Z,8.37
2022-10-21T03:47:08.020Z,5.27
2022-10-21T03:49:36.871Z,5.33
2022-10-21T03:52:06.562Z,5.27
2022-10-21T03:54:36.547Z,5.13
2022-10-21T03:57:06.337Z,4.60
2022-10-21T03:59:34.550Z,5.30
2022-10-21T04:02:03.945Z,4.70
2022-10-21T04:04:32.836Z,5.50
2022-10-21T04:07:01.656Z,4.97
2022-10-21T04:09:30.129Z,37.90
2022-10-21T04:12:08.835Z,54.67
2022-10-21T04:14:39.366Z,55.23
2022-10-21T04:17:09.786Z,85.10
2022-10-21T04:19:41.322Z,71.07
2022-10-21T04:22:10.912Z,41.60
2022-10-21T04:24:39.344Z,27.17
2022-10-21T04:27:09.858Z,21.07
2022-10-21T04:29:39.871Z,14.10
2022-10-21T04:32:11.294Z,10.40
2022-10-21T04:34:39.524Z,8.63
2022-10-21T04:37:07.665Z,7.37
2022-10-21T04:39:35.783Z,5.63
2022-10-21T04:42:04.112Z,5.30
2022-10-21T04:44:32.239Z,5.90
2022-10-21T04:47:01.746Z,5.33
2022-10-21T04:49:29.898Z,5.47
2022-10-21T04:51:58.067Z,4.37
2022-10-21T04:54:26.317Z,20.97
2022-10-21T04:56:54.449Z,56.90
2022-10-21T04:59:22.607Z,36.90
2022-10-21T05:01:50.830Z,25.50
2022-10-21T05:04:20.508Z,15.20
2022-10-21T05:06:48.738Z,11.93
2022-10-21T05:09:17.173Z,8.73
2022-10-21T05:11:45.442Z,5.87
2022-10-21T05:14:14.924Z,6.63
2022-10-21T05:16:43.899Z,4.67
2022-10-21T05:19:12.945Z,6.73
2022-10-21T05:21:42.491Z,7.90
2022-10-21T05:24:10.737Z,5.37
2022-10-21T05:26:38.961Z,9.63
2022-10-21T05:29:07.091Z,4.03
2022-10-21T05:31:35.295Z,4.43
2022-10-21T05:34:03.579Z,4.57
2022-10-21T05:36:31.727Z,3.73
2022-10-21T05:39:01.267Z,4.60
2022-10-21T05:41:29.407Z,4.23
2022-10-21T05:43:57.578Z,3.90
2022-10-21T05:46:25.753Z,4.30
2022-10-21T05:48:53.943Z,3.90
2022-10-21T05:51:26.258Z,7.13
2022-10-21T05:53:54.558Z,31.57
2022-10-21T05:56:24.016Z,43.73
2022-10-21T05:58:52.507Z,30.70
2022-10-21T06:01:20.758Z,20.97
2022-10-21T06:03:48.950Z,13.93
2022-10-21T06:06:17.251Z,9.03
2022-10-21T06:08:45.472Z,6.23
2022-10-21T06:11:15.149Z,4.93
2022-10-21T06:13:44.933Z,7.93
2022-10-21T06:16:14.771Z,8.40
2022-10-21T06:18:43.651Z,3.93
2022-10-21T06:21:12.531Z,4.97
2022-10-21T06:23:40.755Z,5.30
2022-10-21T06:26:11.467Z,10.47
2022-10-21T06:28:42.361Z,36.07
2022-10-21T06:31:15.986Z,5.43
2022-10-21T06:33:44.491Z,4.73
2022-10-21T06:36:14.850Z,4.73
2022-10-21T06:38:44.936Z,4.10
2022-10-21T06:41:15.262Z,6.73
2022-10-21T06:43:44.104Z,6.47
2022-10-21T06:46:15.670Z,8.20
2022-10-21T06:48:43.949Z,5.53
2022-10-21T06:51:19.135Z,6.00
2022-10-21T06:53:52.090Z,26.20
2022-10-21T06:56:20.989Z,38.33
2022-10-21T06:58:50.280Z,33.60
2022-10-21T07:01:34.942Z,18.73
2022-10-21T07:04:12.203Z,18.40
2022-10-21T07:06:40.473Z,9.27
2022-10-21T07:09:09.899Z,8.30
2022-10-21T07:11:38.209Z,8.67
2022-10-21T07:14:07.493Z,6.73
2022-10-21T07:16:37.985Z,8.30
2022-10-21T07:19:07.063Z,6.13
2022-10-21T07:21:35.396Z,5.53
2022-10-21T07:24:03.648Z,4.20
2022-10-21T07:26:34.255Z,6.20
2022-10-21T07:29:02.533Z,3.83
2022-10-21T07:31:34.191Z,5.10
2022-10-21T07:36:41.084Z,3.10
2022-10-21T07:39:11.964Z,2.43
2022-10-21T07:41:42.332Z,3.27
2022-10-21T07:44:10.784Z,3.90
2022-10-21T07:46:39.940Z,3.07
2022-10-21T07:49:10.024Z,3.10
2022-10-21T07:51:39.156Z,2.93
2022-10-21T07:54:07.734Z,6.13
2022-10-21T07:56:39.682Z,36.03
2022-10-21T07:59:12.630Z,34.83
2022-10-21T08:01:44.593Z,24.03
2022-10-21T08:04:16.331Z,16.03
2022-10-21T08:06:45.896Z,13.13
2022-10-21T08:09:14.519Z,8.77
2022-10-21T08:11:42.816Z,7.60
2022-10-21T08:14:12.763Z,7.13
2022-10-21T08:16:41.988Z,6.70
2022-10-21T08:19:10.685Z,4.10
2022-10-21T08:21:40.171Z,3.83
2022-10-21T08:24:08.537Z,4.43
2022-10-21T08:26:36.830Z,3.40
2022-10-21T08:29:05.149Z,4.53
2022-10-21T08:31:33.567Z,3.40
2022-10-21T08:34:01.996Z,3.40
2022-10-21T08:36:30.293Z,4.10
2022-10-21T08:38:59.876Z,3.47
2022-10-21T08:41:49.528Z,3.03
2022-10-21T08:44:28.513Z,3.40
2022-10-21T08:47:03.825Z,37.07
2022-10-21T08:49:42.832Z,30.00
2022-10-21T08:52:16.369Z,25.30
2022-10-21T08:54:48.700Z,19.77
2022-10-21T08:57:16.882Z,13.77
2022-10-21T08:59:45.061Z,9.87
2022-10-21T09:02:30.221Z,8.37
2022-10-21T09:05:16.784Z,7.00
2022-10-21T09:07:52.594Z,6.43
2022-10-21T09:10:31.212Z,5.30
2022-10-21T09:13:04.318Z,4.13
2022-10-21T09:15:51.796Z,4.50
2022-10-21T09:18:31.583Z,3.90
2022-10-21T09:21:10.666Z,5.90
2022-10-21T09:23:48.486Z,4.30
2022-10-21T09:26:34.415Z,4.20
2022-10-21T09:29:13.956Z,6.53
2022-10-21T09:31:43.797Z,4.13
2022-10-21T09:34:21.748Z,3.77
2022-10-21T09:36:51.688Z,7.83
2022-10-21T09:39:25.212Z,5.60
2022-10-21T09:42:01.657Z,3.87
2022-10-21T09:44:34.673Z,3.57
2022-10-21T09:47:02.833Z,4.50
2022-10-21T09:50:06.403Z,3.43
2022-10-21T09:52:24.132Z,3.43
2022-10-21T09:54:52.790Z,3.70
2022-10-21T09:57:33.834Z,3.33
2022-10-21T10:00:03.352Z,3.37
2022-10-21T10:02:43.142Z,5.57
2022-10-21T10:05:37.452Z,3.20
2022-10-21T10:08:28.088Z,3.50
2022-10-21T10:11:04.298Z,3.30
2022-10-21T10:13:33.827Z,3.90
2022-10-21T10:16:30.154Z,3.57
2022-10-21T10:19:15.708Z,6.63
2022-10-21T10:21:44.489Z,4.70
2022-10-21T10:24:19.411Z,6.23
2022-10-21T10:26:48.930Z,15.53
2022-10-21T10:29:26.853Z,16.00
2022-10-21T10:31:57.414Z,12.03
2022-10-21T10:34:31.144Z,10.93
2022-10-21T10:37:06.972Z,10.33
2022-10-21T10:39:38.540Z,8.70
2022-10-21T10:42:07.971Z,7.07
2022-10-21T10:44:41.164Z,5.90
2022-10-21T10:47:20.338Z,5.37
2022-10-21T10:49:48.807Z,4.43
2022-10-21T10:52:23.882Z,5.40
2022-10-21T10:55:17.723Z,4.23
2022-10-21T10:58:05.866Z,4.93
2022-10-21T11:00:46.075Z,4.67
2022-10-21T11:03:18.041Z,3.30
2022-10-21T11:05:48.804Z,4.00
2022-10-21T11:08:20.774Z,4.00
2022-10-21T11:10:53.268Z,4.13
2022-10-21T11:13:23.726Z,3.20
2022-10-21T11:16:11.209Z,3.80
2022-10-21T11:18:49.515Z,4.60
2022-10-21T11:21:44.710Z,5.00
2022-10-21T11:24:25.426Z,6.27
2022-10-21T11:26:59.555Z,8.57
2022-10-21T11:29:37.372Z,25.33
2022-10-21T11:32:18.998Z,20.90
2022-10-21T11:35:06.813Z,19.63
2022-10-21T11:37:46.796Z,14.50
2022-10-21T11:40:24.740Z,13.90
2022-10-21T11:42:54.107Z,13.40
2022-10-21T11:45:50.812Z,9.97
2022-10-21T11:48:33.306Z,11.23
2022-10-21T11:51:11.547Z,6.83
2022-10-21T11:53:59.481Z,8.53
2022-10-21T11:56:38.587Z,6.20
2022-10-21T11:59:21.744Z,10.47
2022-10-21T12:02:00.094Z,4.83
2022-10-21T12:04:47.720Z,5.07
2022-10-21T12:07:28.509Z,5.30
2022-10-21T12:10:02.066Z,4.40
2022-10-21T12:12:33.971Z,3.03
2022-10-21T12:15:04.079Z,3.70
2022-10-21T12:17:34.908Z,3.30
2022-10-21T12:20:07.371Z,2.77
2022-10-21T12:22:36.961Z,3.00
2022-10-21T12:25:18.848Z,2.70
2022-10-21T12:27:54.752Z,3.03
2022-10-21T12:30:27.390Z,2.20
2022-10-21T12:33:15.742Z,2.67
2022-10-21T12:35:50.362Z,1.70
2022-10-21T12:38:24.581Z,2.57
2022-10-21T12:41:34.230Z,1.63
2022-10-21T12:44:21.113Z,2.20
2022-10-21T12:46:52.716Z,1.73
2022-10-21T12:49:27.442Z,2.50
2022-10-21T12:52:08.778Z,1.87
2022-10-21T12:54:44.415Z,4.87
2022-10-21T12:57:23.408Z,3.63
2022-10-21T12:59:51.621Z,3.17
2022-10-21T13:02:27.190Z,2.00
2022-10-21T13:04:57.483Z,1.87
2022-10-21T13:07:37.815Z,2.13
2022-10-21T13:10:36.261Z,1.70
2022-10-21T13:13:41.151Z,2.30
2022-10-21T13:16:49.189Z,2.70
2022-10-21T13:19:35.195Z,1.50
2022-10-21T13:22:11.199Z,2.50
2022-10-21T13:24:41.383Z,2.40
2022-10-21T13:27:28.976Z,2.00
2022-10-21T13:29:57.866Z,1.97
2022-10-21T13:32:29.323Z,5.97
2022-10-21T13:35:03.794Z,1.57
2022-10-21T13:37:35.943Z,2.40
2022-10-21T13:40:08.779Z,1.60
2022-10-21T13:42:40.871Z,3.33
2022-10-21T13:45:23.424Z,2.37
2022-10-21T13:48:01.746Z,1.33
2022-10-21T13:50:33.611Z,5.73
2022-10-21T13:53:04.540Z,2.67
2022-10-21T13:55:34.174Z,4.00
2022-10-21T13:58:02.505Z,2.03
2022-10-21T14:00:32.912Z,3.27
2022-10-21T14:03:02.945Z,2.67
2022-10-21T14:05:35.826Z,9.73
2022-10-21T14:08:05.751Z,7.67
2022-10-21T14:10:36.930Z,7.13
2022-10-21T14:13:05.956Z,5.60
2022-10-21T14:15:41.049Z,6.03
2022-10-21T14:18:09.485Z,3.63
2022-10-21T14:20:39.285Z,4.20
2022-10-21T14:23:18.833Z,3.23
2022-10-21T14:25:49.860Z,4.13
2022-10-21T14:28:18.934Z,2.90
2022-10-21T14:30:47.555Z,2.63
2022-10-21T14:33:23.920Z,2.47
2022-10-21T14:36:07.366Z,6.40
2022-10-21T14:38:42.441Z,9.80
2022-10-21T14:41:18.855Z,8.60
2022-10-21T14:43:50.383Z,8.57
2022-10-21T14:46:18.993Z,7.97
2022-10-21T14:48:51.962Z,6.67
2022-10-21T14:51:22.665Z,6.67
2022-10-21T14:53:56.009Z,5.27
2022-10-21T14:56:30.711Z,4.70
2022-10-21T14:59:00.921Z,4.80
2022-10-21T15:01:29.341Z,4.43
2022-10-21T15:03:58.821Z,3.30
2022-10-21T15:06:32.955Z,5.83
2022-10-21T15:09:18.668Z,27.27
2022-10-21T15:11:48.749Z,33.33
2022-10-21T15:14:23.996Z,17.20
2022-10-21T15:16:54.781Z,12.33
2022-10-21T15:19:25.877Z,8.30
2022-10-21T15:21:58.324Z,5.03
2022-10-21T15:24:37.024Z,5.27
2022-10-21T15:27:06.937Z,2.57
2022-10-21T15:29:37.705Z,2.57
2022-10-21T15:32:07.140Z,2.00
2022-10-21T15:34:35.553Z,2.53
2022-10-21T15:37:04.093Z,2.60
2022-10-21T15:39:32.292Z,1.40
2022-10-21T15:42:01.165Z,1.73
2022-10-21T15:44:31.729Z,1.33
2022-10-21T15:47:02.680Z,1.30
2022-10-21T15:49:34.147Z,1.40
2022-10-21T15:52:02.472Z,1.20
2022-10-21T15:54:30.752Z,1.30
2022-10-21T15:57:00.403Z,1.13
2022-10-21T15:59:31.890Z,1.20
2022-10-21T16:02:00.976Z,5.93
2022-10-21T16:04:29.301Z,1.10
2022-10-21T16:06:57.622Z,1.33
2022-10-21T16:09:28.993Z,2.00
2022-10-21T16:12:00.483Z,1.40
2022-10-21T16:14:30.732Z,2.00
2022-10-21T16:17:01.111Z,2.00
2022-10-21T16:19:29.770Z,2.27
2022-10-21T16:21:57.951Z,4.07
2022-10-21T16:24:26.286Z,4.13
2022-10-21T16:26:54.648Z,4.47
2022-10-21T16:29:25.130Z,4.37
2022-10-21T16:31:54.410Z,3.90
2022-10-21T16:34:25.084Z,3.33
2022-10-21T16:36:53.333Z,3.90
2022-10-21T16:39:25.471Z,3.40
2022-10-21T16:41:54.060Z,3.20
2022-10-21T16:44:22.780Z,4.50
2022-10-21T16:46:52.754Z,3.37
2022-10-21T16:49:25.667Z,3.70
2022-10-21T16:51:54.578Z,3.30
2022-10-21T16:54:24.596Z,3.50
2022-10-21T16:56:55.115Z,4.30
2022-10-21T16:59:27.546Z,4.03
2022-10-21T17:01:57.809Z,5.40
2022-10-21T17:04:28.131Z,4.00
2022-10-21T17:06:58.655Z,3.83
2022-10-21T17:09:28.847Z,3.33
2022-10-21T17:11:57.147Z,3.40
2022-10-21T17:14:25.489Z,3.37
2022-10-21T17:16:54.029Z,3.23
2022-10-21T17:19:22.464Z,2.53
2022-10-21T17:21:52.100Z,2.57
2022-10-21T17:24:20.271Z,3.57
2022-10-21T17:26:48.636Z,4.23
2022-10-21T17:29:17.057Z,3.90
2022-10-21T17:31:45.464Z,4.30
2022-10-21T17:34:24.936Z,3.57
2022-10-21T17:36:55.039Z,3.20
2022-10-21T17:39:23.826Z,3.37
2022-10-21T17:41:52.493Z,2.43
2022-10-21T17:44:20.977Z,3.60
2022-10-21T17:46:51.897Z,2.90
2022-10-21T17:49:20.096Z,2.07
2022-10-21T17:51:49.341Z,3.97
2022-10-21T17:54:22.620Z,2.13
2022-10-21T17:56:54.511Z,4.53
2022-10-21T17:59:23.022Z,2.40
2022-10-21T18:01:51.212Z,2.60
2022-10-21T18:04:19.998Z,2.70
2022-10-21T18:06:48.284Z,3.80
2022-10-21T18:09:18.381Z,3.27
2022-10-21T18:11:46.654Z,2.30
2022-10-21T18:14:15.284Z,2.77
2022-10-21T18:16:43.527Z,3.10
2022-10-21T18:19:12.110Z,2.40
2022-10-21T18:21:40.445Z,3.50
2022-10-21T18:24:12.157Z,3.10
2022-10-21T18:26:42.092Z,2.80
2022-10-21T18:29:10.339Z,2.87
2022-10-21T18:31:39.024Z,2.63
2022-10-21T18:34:09.205Z,2.60
2022-10-21T18:36:37.958Z,4.80
2022-10-21T18:39:06.882Z,3.10
2022-10-21T18:41:36.475Z,4.40
2022-10-21T18:44:09.093Z,5.03
2022-10-21T18:46:38.614Z,2.80
2022-10-21T18:49:09.825Z,3.67
2022-10-21T18:51:38.206Z,7.07
2022-10-21T18:54:06.398Z,3.17
2022-10-21T18:56:34.672Z,8.03
2022-10-21T18:59:06.605Z,4.23
2022-10-21T19:01:34.875Z,3.67
2022-10-21T19:04:03.232Z,4.27
2022-10-21T19:06:37.656Z,5.93
2022-10-21T19:09:09.058Z,3.60
2022-10-21T19:11:37.710Z,6.63
2022-10-21T19:14:09.854Z,3.20
2022-10-21T19:16:41.308Z,27.83
2022-10-21T19:19:10.031Z,27.40
2022-10-21T19:21:38.211Z,18.77
2022-10-21T19:24:07.129Z,13.83
2022-10-21T19:26:37.848Z,9.43
2022-10-21T19:29:10.119Z,6.60
2022-10-21T19:31:38.941Z,4.73
2022-10-21T19:34:08.426Z,5.23
2022-10-21T19:36:37.775Z,3.40
2022-10-21T19:39:07.178Z,3.27
2022-10-21T19:41:36.653Z,2.73
2022-10-21T19:44:07.020Z,3.57
2022-10-21T19:46:37.578Z,3.40
2022-10-21T19:49:07.858Z,3.27
2022-10-21T19:51:41.931Z,3.40
2022-10-21T19:54:14.064Z,4.43
2022-10-21T19:56:43.364Z,5.10
2022-10-21T19:59:12.261Z,7.70
2022-10-21T20:01:42.288Z,3.00
2022-10-21T20:04:11.977Z,3.23
2022-10-21T20:06:41.054Z,3.33
2022-10-21T20:09:15.454Z,7.43
2022-10-21T20:11:45.310Z,4.07
2022-10-21T20:14:15.172Z,4.77
2022-10-21T20:16:46.103Z,4.30
2022-10-21T20:19:15.771Z,2.90
2022-10-21T20:21:44.964Z,3.20
2022-10-21T20:24:15.736Z,4.47
2022-10-21T20:26:45.551Z,4.73
2022-10-21T20:29:15.489Z,3.50
2022-10-21T20:31:45.113Z,3.90
2022-10-21T20:34:14.243Z,4.00
2022-10-21T20:36:42.632Z,5.30
2022-10-21T20:39:11.949Z,2.30
2022-10-21T20:41:40.748Z,3.07
2022-10-21T20:44:13.019Z,2.80
2022-10-21T20:46:41.207Z,2.70
2022-10-21T20:49:11.081Z,2.53
2022-10-21T20:51:42.087Z,2.73
2022-10-21T20:54:14.246Z,2.93
2022-10-21T20:56:43.084Z,2.63
2022-10-21T20:59:15.118Z,2.57
2022-10-21T21:01:45.081Z,2.50
2022-10-21T21:04:16.317Z,3.47
2022-10-21T21:06:46.463Z,3.73
2022-10-21T21:12:05.481Z,3.40
2022-10-21T21:14:34.021Z,5.30
2022-10-21T21:17:02.226Z,4.03
2022-10-21T21:19:31.785Z,3.03
2022-10-21T21:22:00.049Z,3.23
2022-10-21T21:24:28.420Z,3.23
2022-10-21T21:26:56.932Z,2.43
2022-10-21T21:29:25.181Z,3.73
2022-10-21T21:31:53.523Z,2.80
2022-10-21T21:34:21.879Z,6.40
2022-10-21T21:36:51.401Z,6.17
2022-10-21T21:39:19.502Z,4.03
2022-10-21T21:41:47.653Z,4.23
2022-10-21T21:44:15.859Z,3.03
2022-10-21T21:46:44.020Z,2.73
2022-10-21T21:49:12.212Z,3.30
2022-10-21T21:51:40.526Z,4.17
2022-10-21T21:54:10.100Z,2.30
2022-10-21T21:56:38.405Z,3.07
2022-10-21T21:59:06.722Z,2.53
2022-10-21T22:01:35.299Z,3.83
2022-10-21T22:04:03.716Z,2.30
2022-10-21T22:06:35.340Z,2.20
2022-10-21T22:09:07.474Z,2.13
2022-10-21T22:11:37.501Z,2.90
2022-10-21T22:14:06.308Z,2.20
2022-10-21T22:16:34.447Z,3.40
2022-10-21T22:19:03.258Z,3.50
2022-10-21T22:21:32.469Z,3.60
2022-10-21T22:24:01.056Z,1.97
2022-10-21T22:26:29.962Z,2.67
2022-10-21T22:28:59.564Z,1.90
2022-10-21T22:31:30.910Z,5.90
2022-10-21T22:34:00.955Z,2.10
2022-10-21T22:36:29.595Z,2.27
2022-10-21T22:38:57.964Z,2.27
2022-10-21T22:41:26.367Z,3.97
2022-10-21T22:43:54.608Z,6.73
2022-10-21T22:46:40.186Z,3.43
2022-10-21T22:49:08.421Z,2.37
2022-10-21T22:51:36.603Z,2.23
2022-10-21T22:54:11.688Z,2.50
2022-10-21T22:56:47.690Z,4.10
2022-10-21T22:59:15.880Z,3.30
2022-10-21T23:01:45.454Z,3.63
2022-10-21T23:04:13.916Z,2.60
2022-10-21T23:06:42.072Z,2.73
2022-10-21T23:09:10.410Z,2.80
2022-10-21T23:11:38.940Z,3.00
2022-10-21T23:14:09.427Z,2.00
2022-10-21T23:16:38.589Z,3.60
2022-10-21T23:19:09.177Z,3.20
2022-10-21T23:21:38.166Z,2.43
2022-10-21T23:24:07.399Z,3.77
2022-10-21T23:26:36.654Z,2.37
2022-10-21T23:29:05.459Z,3.13
2022-10-21T23:31:33.675Z,3.20
2022-10-21T23:34:02.737Z,3.60
2022-10-21T23:36:32.451Z,4.13
2022-10-21T23:39:01.764Z,2.57
2022-10-21T23:41:29.977Z,2.93
2022-10-21T23:43:58.171Z,4.40
2022-10-21T23:48:59.398Z,3.80
2022-10-21T23:51:27.589Z,2.63
2022-10-21T23:53:57.165Z,6.97
2022-10-21T23:56:25.380Z,3.40
2022-10-21T23:58:53.524Z,4.60
